createdAt,value
2024-03-07T00:00:37.285Z,99.99
2024-03-07T00:01:37.211Z,99.99
2024-03-07T00:02:37.349Z,99.99
2024-03-07T00:03:37.186Z,99.99
2024-03-07T00:04:37.204Z,99.99
2024-03-07T00:05:37.244Z,99.99
2024-03-07T00:06:37.158Z,99.99
2024-03-07T00:07:37.140Z,99.99
2024-03-07T00:08:37.205Z,99.99
2024-03-07T00:09:37.136Z,99.99
2024-03-07T00:10:37.160Z,99.99
2024-03-07T00:11:37.156Z,99.99
2024-03-07T00:12:37.110Z,99.99
2024-03-07T00:13:37.115Z,99.99
2024-03-07T00:14:37.140Z,99.99
2024-03-07T00:15:37.056Z,99.99
2024-03-07T00:16:37.044Z,99.99
2024-03-07T00:17:37.197Z,99.99
2024-03-07T00:18:37.094Z,99.99
2024-03-07T00:19:37.015Z,99.99
2024-03-07T00:20:37.056Z,99.99
2024-03-07T00:21:37.026Z,99.99
2024-03-07T00:22:36.980Z,99.99
2024-03-07T00:23:37.036Z,99.99
2024-03-07T00:24:36.965Z,99.99
2024-03-07T00:25:36.998Z,99.99
2024-03-07T00:26:37.009Z,99.99
2024-03-07T00:27:36.937Z,99.99
2024-03-07T00:28:36.920Z,99.99
2024-03-07T00:29:36.948Z,99.99
2024-03-07T00:30:36.919Z,99.99
2024-03-07T00:31:36.884Z,99.99
2024-03-07T00:32:37.233Z,99.99
2024-03-07T00:33:51.512Z,99.99
2024-03-07T00:34:36.962Z,99.99
2024-03-07T00:35:36.921Z,99.99
2024-03-07T00:36:36.838Z,99.99
2024-03-07T00:37:36.901Z,99.99
2024-03-07T00:38:36.862Z,99.99
2024-03-07T00:39:36.799Z,99.99
2024-03-07T00:40:36.825Z,99.99
2024-03-07T00:41:36.835Z,99.99
2024-03-07T00:42:36.809Z,99.99
2024-03-07T00:43:36.754Z,99.99
2024-03-07T00:44:36.798Z,99.99
2024-03-07T00:45:36.733Z,99.99
2024-03-07T00:46:36.761Z,99.99
2024-03-07T00:47:36.760Z,99.99
2024-03-07T00:48:36.781Z,99.99
2024-03-07T00:49:36.713Z,99.99
2024-03-07T00:50:36.734Z,99.99
2024-03-07T00:51:38.169Z,99.99
2024-03-07T00:52:36.659Z,99.99
2024-03-07T00:53:36.716Z,99.99
2024-03-07T00:54:36.642Z,99.99
2024-03-07T00:55:36.636Z,99.99
2024-03-07T00:56:36.643Z,99.99
2024-03-07T00:57:36.621Z,99.99
2024-03-07T00:58:36.725Z,99.99
2024-03-07T00:59:36.676Z,99.99
2024-03-07T01:00:36.661Z,99.99
2024-03-07T01:01:36.647Z,99.99
2024-03-07T01:02:36.716Z,99.99
2024-03-07T01:03:36.599Z,99.99
2024-03-07T01:04:36.532Z,99.99
2024-03-07T01:05:36.638Z,99.99
2024-03-07T01:06:36.525Z,99.99
2024-03-07T01:07:36.495Z,99.99
2024-03-07T01:08:36.515Z,99.99
2024-03-07T01:09:36.618Z,99.99
2024-03-07T01:10:36.506Z,99.99
2024-03-07T01:11:36.536Z,99.99
2024-03-07T01:12:36.433Z,99.99
2024-03-07T01:13:36.464Z,99.99
2024-03-07T01:14:36.533Z,99.99
2024-03-07T01:15:36.452Z,99.99
2024-03-07T01:16:36.530Z,99.99
2024-03-07T01:17:36.503Z,99.99
2024-03-07T01:18:36.455Z,99.99
2024-03-07T01:19:36.471Z,99.99
2024-03-07T01:20:36.451Z,99.99
2024-03-07T01:21:38.719Z,99.99
2024-03-07T01:22:36.409Z,99.99
2024-03-07T01:23:36.442Z,99.99
2024-03-07T01:24:36.354Z,99.99
2024-03-07T01:25:36.381Z,99.99
2024-03-07T01:26:36.411Z,99.99
2024-03-07T01:27:36.340Z,99.99
2024-03-07T01:28:36.351Z,99.99
2024-03-07T01:29:36.310Z,99.99
2024-03-07T01:30:36.271Z,99.99
2024-03-07T01:31:36.295Z,99.99
2024-03-07T01:32:36.286Z,99.99
2024-03-07T01:33:36.274Z,99.99
2024-03-07T01:34:36.251Z,99.99
2024-03-07T01:35:36.389Z,99.99
2024-03-07T01:36:36.258Z,99.99
2024-03-07T01:37:36.186Z,99.99
2024-03-07T01:38:36.193Z,99.99
2024-03-07T01:39:36.327Z,99.99
2024-03-07T01:40:36.162Z,99.99
2024-03-07T01:41:36.246Z,99.99
2024-03-07T01:42:36.169Z,99.99
2024-03-07T01:43:36.095Z,99.99
2024-03-07T01:44:36.174Z,99.99
2024-03-07T01:45:36.093Z,99.99
2024-03-07T01:46:36.121Z,99.99
2024-03-07T01:47:36.176Z,99.99
2024-03-07T01:48:36.174Z,99.99
2024-03-07T01:49:36.077Z,99.99
2024-03-07T01:50:36.066Z,99.99
2024-03-07T01:51:36.091Z,99.99
2024-03-07T01:52:36.048Z,99.99
2024-03-07T01:53:36.129Z,99.99
2024-03-07T01:54:36.108Z,99.99
2024-03-07T01:55:35.999Z,99.99
2024-03-07T01:56:35.990Z,99.99
2024-03-07T01:57:35.963Z,99.99
2024-03-07T01:58:36.007Z,99.99
2024-03-07T01:59:36.106Z,99.99
2024-03-07T02:00:35.938Z,99.99
2024-03-07T02:01:36.013Z,99.99
2024-03-07T02:02:35.962Z,99.99
2024-03-07T02:03:35.912Z,99.99
2024-03-07T02:04:35.907Z,99.99
2024-03-07T02:05:36.006Z,99.99
2024-03-07T02:06:35.899Z,99.99
2024-03-07T02:07:35.892Z,99.99
2024-03-07T02:08:36.179Z,99.99
2024-03-07T02:09:35.902Z,99.99
2024-03-07T02:10:35.826Z,99.99
2024-03-07T02:11:35.993Z,99.99
2024-03-07T02:12:35.893Z,99.99
2024-03-07T02:13:35.916Z,99.99
2024-03-07T02:14:35.861Z,99.99
2024-03-07T02:15:35.798Z,99.99
2024-03-07T02:16:35.813Z,99.99
2024-03-07T02:17:35.829Z,99.99
2024-03-07T02:18:35.797Z,99.99
2024-03-07T02:19:35.748Z,99.99
2024-03-07T02:20:35.745Z,99.99
2024-03-07T02:21:35.698Z,99.99
2024-03-07T02:22:35.747Z,99.99
2024-03-07T02:23:35.711Z,99.99
2024-03-07T02:24:35.672Z,99.99
2024-03-07T02:25:35.654Z,99.99
2024-03-07T02:26:35.703Z,99.99
2024-03-07T02:27:35.642Z,99.99
2024-03-07T02:28:35.633Z,99.99
2024-03-07T02:29:35.667Z,99.99
2024-03-07T02:30:35.620Z,99.99
2024-03-07T02:31:35.579Z,99.99
2024-03-07T02:32:35.647Z,99.99
2024-03-07T02:33:35.615Z,99.99
2024-03-07T02:34:35.565Z,99.99
2024-03-07T02:35:35.613Z,99.99
2024-03-07T02:36:35.519Z,99.99
2024-03-07T02:37:35.517Z,99.99
2024-03-07T02:38:35.548Z,99.99
2024-03-07T02:39:35.490Z,99.99
2024-03-07T02:40:35.499Z,99.99
2024-03-07T02:41:35.591Z,99.99
2024-03-07T02:42:35.464Z,99.99
2024-03-07T02:43:36.097Z,99.99
2024-03-07T02:44:35.463Z,99.99
2024-03-07T02:45:35.423Z,99.99
2024-03-07T02:46:35.423Z,99.99
2024-03-07T02:47:35.516Z,99.99
2024-03-07T02:48:35.419Z,99.99
2024-03-07T02:49:35.380Z,99.99
2024-03-07T02:50:35.422Z,99.99
2024-03-07T02:51:35.370Z,99.99
2024-03-07T02:52:35.362Z,99.99
2024-03-07T02:53:35.533Z,99.99
2024-03-07T02:54:35.327Z,99.99
2024-03-07T02:55:35.468Z,99.99
2024-03-07T02:56:35.349Z,99.99
2024-03-07T02:57:35.304Z,99.99
2024-03-07T02:58:35.283Z,99.99
2024-03-07T02:59:35.294Z,99.99
2024-03-07T03:00:35.272Z,99.99
2024-03-07T03:01:35.271Z,99.99
2024-03-07T03:02:35.313Z,99.99
2024-03-07T03:03:35.226Z,99.99
2024-03-07T03:04:35.213Z,99.99
2024-03-07T03:05:35.300Z,99.99
2024-03-07T03:06:35.196Z,99.99
2024-03-07T03:07:35.184Z,99.99
2024-03-07T03:08:35.208Z,99.99
2024-03-07T03:09:35.176Z,99.99
2024-03-07T03:10:35.152Z,99.99
2024-03-07T03:11:35.269Z,99.99
2024-03-07T03:12:35.137Z,99.99
2024-03-07T03:13:35.116Z,99.99
2024-03-07T03:14:35.128Z,99.99
2024-03-07T03:15:35.099Z,99.99
2024-03-07T03:16:43.987Z,99.99
2024-03-07T03:17:35.254Z,99.99
2024-03-07T03:18:35.136Z,99.99
2024-03-07T03:19:35.051Z,99.99
2024-03-07T03:20:35.998Z,99.99
2024-03-07T03:21:35.030Z,99.99
2024-03-07T03:22:35.023Z,99.99
2024-03-07T03:23:35.071Z,99.99
2024-03-07T03:24:34.989Z,99.99
2024-03-07T03:25:34.985Z,99.99
2024-03-07T03:26:35.013Z,99.99
2024-03-07T03:27:34.991Z,99.99
2024-03-07T03:28:34.985Z,99.99
2024-03-07T03:29:34.991Z,99.99
2024-03-07T03:30:34.933Z,99.99
2024-03-07T03:31:34.930Z,99.99
2024-03-07T03:32:35.010Z,99.99
2024-03-07T03:33:34.942Z,99.99
2024-03-07T03:34:34.894Z,99.99
2024-03-07T03:35:34.925Z,99.99
2024-03-07T03:36:34.897Z,99.99
2024-03-07T03:37:34.863Z,99.99
2024-03-07T03:38:34.919Z,99.99
2024-03-07T03:39:34.926Z,99.99
2024-03-07T03:40:34.839Z,99.99
2024-03-07T03:41:34.861Z,99.99
2024-03-07T03:42:34.808Z,99.99
2024-03-07T03:43:34.814Z,99.99
2024-03-07T03:44:34.820Z,99.99
2024-03-07T03:45:34.777Z,99.99
2024-03-07T03:46:34.757Z,99.99
2024-03-07T03:47:34.804Z,99.99
2024-03-07T03:48:34.871Z,99.99
2024-03-07T03:49:34.731Z,99.99
2024-03-07T03:50:34.793Z,99.99
2024-03-07T03:51:34.721Z,99.99
2024-03-07T03:52:34.697Z,99.99
2024-03-07T03:53:34.772Z,99.99
2024-03-07T03:54:34.682Z,99.99
2024-03-07T03:55:34.672Z,99.99
2024-03-07T03:56:34.693Z,99.99
2024-03-07T03:57:34.638Z,99.99
2024-03-07T03:58:34.642Z,99.99
2024-03-07T03:59:34.680Z,99.99
2024-03-07T04:00:34.612Z,99.99
2024-03-07T04:01:34.637Z,99.99
2024-03-07T04:02:34.595Z,99.99
2024-03-07T04:03:34.578Z,99.99
2024-03-07T04:04:34.569Z,99.99
2024-03-07T04:05:34.667Z,99.99
2024-03-07T04:06:34.543Z,99.99
2024-03-07T04:07:34.534Z,99.99
2024-03-07T04:08:34.579Z,99.99
2024-03-07T04:09:34.505Z,99.99
2024-03-07T04:10:34.518Z,99.99
2024-03-07T04:11:34.594Z,99.99
2024-03-07T04:12:34.496Z,99.99
2024-03-07T04:13:34.486Z,99.99
2024-03-07T04:14:34.504Z,99.99
2024-03-07T04:15:36.400Z,99.99
2024-03-07T04:16:34.435Z,99.99
2024-03-07T04:17:34.546Z,99.99
2024-03-07T04:18:34.484Z,99.99
2024-03-07T04:19:34.419Z,99.99
2024-03-07T04:20:34.434Z,99.99
2024-03-07T04:21:34.414Z,99.99
2024-03-07T04:22:34.381Z,99.99
2024-03-07T04:23:34.422Z,99.99
2024-03-07T04:24:34.354Z,99.99
2024-03-07T04:25:34.426Z,99.99
2024-03-07T04:26:34.345Z,99.99
2024-03-07T04:27:34.331Z,99.99
2024-03-07T04:28:34.323Z,99.99
2024-03-07T04:29:34.338Z,99.99
2024-03-07T04:30:34.295Z,99.99
2024-03-07T04:31:34.328Z,99.99
2024-03-07T04:32:34.341Z,99.99
2024-03-07T04:33:34.313Z,99.90
2024-03-07T04:34:34.237Z,99.90
2024-03-07T04:35:34.312Z,99.90
2024-03-07T04:36:34.227Z,99.79
2024-03-07T04:37:34.221Z,99.79
2024-03-07T04:38:34.245Z,99.90
2024-03-07T04:39:34.194Z,99.90
2024-03-07T04:40:34.172Z,99.90
2024-03-07T04:41:34.192Z,99.90
2024-03-07T04:42:34.150Z,99.90
2024-03-07T04:43:34.134Z,99.90
2024-03-07T04:44:34.246Z,99.99
2024-03-07T04:45:34.114Z,99.99
2024-03-07T04:46:34.109Z,99.99
2024-03-07T04:47:34.193Z,99.99
2024-03-07T04:48:34.129Z,99.99
2024-03-07T04:49:41.626Z,99.90
2024-03-07T04:50:34.672Z,99.94
2024-03-07T04:51:34.055Z,99.84
2024-03-07T04:52:34.059Z,99.84
2024-03-07T04:53:34.175Z,99.73
2024-03-07T04:54:34.033Z,99.73
2024-03-07T04:55:34.023Z,99.73
2024-03-07T04:56:34.072Z,99.73
2024-03-07T04:57:33.992Z,99.63
2024-03-07T04:58:34.020Z,99.63
2024-03-07T04:59:34.159Z,99.63
2024-03-07T05:00:33.994Z,99.52
2024-03-07T05:01:34.033Z,99.52
2024-03-07T05:02:33.985Z,99.63
2024-03-07T05:03:34.000Z,99.63
2024-03-07T05:04:33.961Z,99.63
2024-03-07T05:05:33.985Z,99.63
2024-03-07T05:06:33.925Z,99.52
2024-03-07T05:07:33.899Z,99.52
2024-03-07T05:08:33.956Z,99.63
2024-03-07T05:09:34.018Z,99.63
2024-03-07T05:10:33.864Z,99.68
2024-03-07T05:11:33.988Z,99.68
2024-03-07T05:12:33.837Z,99.78
2024-03-07T05:13:33.833Z,99.68
2024-03-07T05:14:33.837Z,99.68
2024-03-07T05:15:33.805Z,99.68
2024-03-07T05:16:33.798Z,99.68
2024-03-07T05:17:33.962Z,99.68
2024-03-07T05:18:33.797Z,99.68
2024-03-07T05:19:33.798Z,99.68
2024-03-07T05:20:33.780Z,99.57
2024-03-07T05:21:33.735Z,99.57
2024-03-07T05:22:33.735Z,99.57
2024-03-07T05:23:33.805Z,99.57
2024-03-07T05:24:33.724Z,99.57
2024-03-07T05:25:33.717Z,99.57
2024-03-07T05:26:33.743Z,99.47
2024-03-07T05:27:33.679Z,99.47
2024-03-07T05:28:33.672Z,99.47
2024-03-07T05:29:33.679Z,99.37
2024-03-07T05:30:33.705Z,99.26
2024-03-07T05:31:33.633Z,99.16
2024-03-07T05:32:33.705Z,99.16
2024-03-07T05:33:33.722Z,99.16
2024-03-07T05:34:33.641Z,99.05
2024-03-07T05:35:33.623Z,99.05
2024-03-07T05:36:33.581Z,98.95
2024-03-07T05:37:33.601Z,98.95
2024-03-07T05:38:33.610Z,98.95
2024-03-07T05:39:33.559Z,98.95
2024-03-07T05:40:33.544Z,98.85
2024-03-07T05:41:33.572Z,98.85
2024-03-07T05:42:33.658Z,98.74
2024-03-07T05:43:33.545Z,98.64
2024-03-07T05:44:33.539Z,98.54
2024-03-07T05:45:33.466Z,98.54
2024-03-07T05:46:33.462Z,98.43
2024-03-07T05:47:33.532Z,98.33
2024-03-07T05:48:33.562Z,98.33
2024-03-07T05:49:33.432Z,98.33
2024-03-07T05:50:33.514Z,98.22
2024-03-07T05:51:33.410Z,97.96
2024-03-07T05:52:33.419Z,97.96
2024-03-07T05:53:33.423Z,97.86
2024-03-07T05:54:33.386Z,97.75
2024-03-07T05:55:33.403Z,97.75
2024-03-07T05:56:33.429Z,97.65
2024-03-07T05:57:33.346Z,97.55
2024-03-07T05:58:33.384Z,97.34
2024-03-07T05:59:33.420Z,97.34
2024-03-07T06:00:33.346Z,97.34
2024-03-07T06:01:33.318Z,97.24
2024-03-07T06:02:33.355Z,97.13
2024-03-07T06:03:33.282Z,97.24
2024-03-07T06:04:33.316Z,97.13
2024-03-07T06:05:33.387Z,97.13
2024-03-07T06:06:33.244Z,96.92
2024-03-07T06:07:33.254Z,96.82
2024-03-07T06:08:33.290Z,96.72
2024-03-07T06:09:33.217Z,96.72
2024-03-07T06:10:33.240Z,96.72
2024-03-07T06:11:33.291Z,96.82
2024-03-07T06:12:33.270Z,96.72
2024-03-07T06:13:33.234Z,96.41
2024-03-07T06:14:33.164Z,96.41
2024-03-07T06:15:33.197Z,96.51
2024-03-07T06:16:33.282Z,96.51
2024-03-07T06:17:33.291Z,96.20
2024-03-07T06:18:33.180Z,96.09
2024-03-07T06:19:33.138Z,96.20
2024-03-07T06:20:33.211Z,96.20
2024-03-07T06:21:33.134Z,96.09
2024-03-07T06:22:33.113Z,96.20
2024-03-07T06:23:33.183Z,96.24
2024-03-07T06:24:33.094Z,96.14
2024-03-07T06:25:33.048Z,96.24
2024-03-07T06:26:33.125Z,96.24
2024-03-07T06:27:33.038Z,96.14
2024-03-07T06:28:33.036Z,96.14
2024-03-07T06:29:33.106Z,96.14
2024-03-07T06:30:33.050Z,96.14
2024-03-07T06:31:33.041Z,96.24
2024-03-07T06:32:33.187Z,96.24
2024-03-07T06:33:33.015Z,96.24
2024-03-07T06:34:33.052Z,96.34
2024-03-07T06:35:32.983Z,96.34
2024-03-07T06:36:32.967Z,96.34
2024-03-07T06:37:32.939Z,96.34
2024-03-07T06:38:32.971Z,96.45
2024-03-07T06:39:32.890Z,96.41
2024-03-07T06:40:33.000Z,96.41
2024-03-07T06:41:32.973Z,96.41
2024-03-07T06:42:32.881Z,96.30
2024-03-07T06:43:32.840Z,96.20
2024-03-07T06:44:32.882Z,96.30
2024-03-07T06:45:32.841Z,96.30
2024-03-07T06:46:32.839Z,96.20
2024-03-07T06:47:32.909Z,96.09
2024-03-07T06:48:32.877Z,95.89
2024-03-07T06:49:32.818Z,95.78
2024-03-07T06:50:37.870Z,95.57
2024-03-07T06:51:32.812Z,95.41
2024-03-07T06:52:32.807Z,95.41
2024-03-07T06:53:32.780Z,95.51
2024-03-07T06:54:32.762Z,95.62
2024-03-07T06:55:32.739Z,95.62
2024-03-07T06:56:32.715Z,95.72
2024-03-07T06:57:32.738Z,95.68
2024-03-07T06:58:33.992Z,95.57
2024-03-07T06:59:32.962Z,95.62
2024-03-07T07:00:32.682Z,95.57
2024-03-07T07:01:32.682Z,95.41
2024-03-07T07:02:32.702Z,95.31
2024-03-07T07:03:32.749Z,95.20
2024-03-07T07:04:32.680Z,95.20
2024-03-07T07:05:32.680Z,95.20
2024-03-07T07:06:33.001Z,95.20
2024-03-07T07:07:32.592Z,95.20
2024-03-07T07:08:32.628Z,95.20
2024-03-07T07:09:32.691Z,95.20
2024-03-07T07:10:32.623Z,95.20
2024-03-07T07:11:35.065Z,95.00
2024-03-07T07:12:32.596Z,95.10
2024-03-07T07:13:32.605Z,94.95
2024-03-07T07:14:32.545Z,94.85
2024-03-07T07:15:32.542Z,94.74
2024-03-07T07:16:32.533Z,94.79
2024-03-07T07:17:32.577Z,94.58
2024-03-07T07:18:32.634Z,94.48
2024-03-07T07:19:32.559Z,94.37
2024-03-07T07:20:32.567Z,94.37
2024-03-07T07:21:32.492Z,94.27
2024-03-07T07:22:35.700Z,94.27
2024-03-07T07:23:32.473Z,94.17
2024-03-07T07:24:32.446Z,94.17
2024-03-07T07:25:32.388Z,94.37
2024-03-07T07:26:32.434Z,94.33
2024-03-07T07:27:32.375Z,94.23
2024-03-07T07:28:32.355Z,94.23
2024-03-07T07:29:32.471Z,94.02
2024-03-07T07:30:32.342Z,93.50
2024-03-07T07:31:32.328Z,93.40
2024-03-07T07:32:32.494Z,93.50
2024-03-07T07:33:32.355Z,93.50
2024-03-07T07:34:32.295Z,93.44
2024-03-07T07:35:32.470Z,93.44
2024-03-07T07:36:32.284Z,93.54
2024-03-07T07:37:32.278Z,93.44
2024-03-07T07:38:32.265Z,92.93
2024-03-07T07:39:32.242Z,93.23
2024-03-07T07:40:32.255Z,93.54
2024-03-07T07:41:32.260Z,93.44
2024-03-07T07:42:32.251Z,93.23
2024-03-07T07:43:41.823Z,93.13
2024-03-07T07:44:32.227Z,93.08
2024-03-07T07:45:32.181Z,92.98
2024-03-07T07:46:32.174Z,92.72
2024-03-07T07:47:33.918Z,92.57
2024-03-07T07:48:32.298Z,92.26
2024-03-07T07:49:32.122Z,92.57
2024-03-07T07:50:32.137Z,92.78
2024-03-07T07:51:32.216Z,93.08
2024-03-07T07:52:32.128Z,92.78
2024-03-07T07:53:32.157Z,92.68
2024-03-07T07:54:32.105Z,92.68
2024-03-07T07:55:32.055Z,91.74
2024-03-07T07:56:32.094Z,91.64
2024-03-07T07:57:32.074Z,91.95
2024-03-07T07:58:32.072Z,91.74
2024-03-07T07:59:32.063Z,91.53
2024-03-07T08:00:32.151Z,91.95
2024-03-07T08:01:32.003Z,91.64
2024-03-07T08:02:32.010Z,91.06
2024-03-07T08:03:31.994Z,91.47
2024-03-07T08:04:32.001Z,91.47
2024-03-07T08:05:31.989Z,91.16
2024-03-07T08:06:31.953Z,91.37
2024-03-07T08:07:31.926Z,91.89
2024-03-07T08:08:31.999Z,92.05
2024-03-07T08:09:31.904Z,92.16
2024-03-07T08:10:31.948Z,92.05
2024-03-07T08:11:32.007Z,92.05
2024-03-07T08:12:31.910Z,91.70
2024-03-07T08:13:31.945Z,90.77
2024-03-07T08:14:31.908Z,90.60
2024-03-07T08:15:31.986Z,90.77
2024-03-07T08:16:31.936Z,90.97
2024-03-07T08:17:31.923Z,90.56
2024-03-07T08:18:31.913Z,90.66
2024-03-07T08:19:31.809Z,90.66
2024-03-07T08:20:31.883Z,90.14
2024-03-07T08:21:31.794Z,89.77
2024-03-07T08:22:31.780Z,89.67
2024-03-07T08:23:31.846Z,90.19
2024-03-07T08:24:31.744Z,90.50
2024-03-07T08:25:31.763Z,90.81
2024-03-07T08:26:31.784Z,90.81
2024-03-07T08:27:31.713Z,89.98
2024-03-07T08:28:31.731Z,89.92
2024-03-07T08:29:31.740Z,90.12
2024-03-07T08:30:31.686Z,89.61
2024-03-07T08:31:31.688Z,90.02
2024-03-07T08:32:31.738Z,90.23
2024-03-07T08:33:31.834Z,90.23
2024-03-07T08:34:31.659Z,90.50
2024-03-07T08:35:31.772Z,90.39
2024-03-07T08:36:31.623Z,89.67
2024-03-07T08:37:31.615Z,89.77
2024-03-07T08:38:31.628Z,89.36
2024-03-07T08:39:31.587Z,89.77
2024-03-07T08:40:31.638Z,90.29
2024-03-07T08:41:31.614Z,90.19
2024-03-07T08:42:31.553Z,89.87
2024-03-07T08:43:31.546Z,89.67
2024-03-07T08:44:31.578Z,89.98
2024-03-07T08:45:31.551Z,90.19
2024-03-07T08:46:31.524Z,89.42
2024-03-07T08:47:31.568Z,89.62
2024-03-07T08:48:31.646Z,89.52
2024-03-07T08:49:31.479Z,89.42
2024-03-07T08:50:31.503Z,89.52
2024-03-07T08:51:31.464Z,89.62
2024-03-07T08:52:31.447Z,89.42
2024-03-07T08:53:31.510Z,89.11
2024-03-07T08:54:31.428Z,88.90
2024-03-07T08:55:31.422Z,89.21
2024-03-07T08:56:31.414Z,89.21
2024-03-07T08:57:31.384Z,89.31
2024-03-07T08:58:31.382Z,89.11
2024-03-07T08:59:31.417Z,89.00
2024-03-07T09:00:31.474Z,89.11
2024-03-07T09:01:31.361Z,89.21
2024-03-07T09:02:31.381Z,88.59
2024-03-07T09:03:31.329Z,88.48
2024-03-07T09:04:31.309Z,88.69
2024-03-07T09:05:31.522Z,89.07
2024-03-07T09:06:31.283Z,88.86
2024-03-07T09:07:31.295Z,88.76
2024-03-07T09:08:32.047Z,88.45
2024-03-07T09:09:31.257Z,88.24
2024-03-07T09:10:31.963Z,88.24
2024-03-07T09:11:31.371Z,88.65
2024-03-07T09:12:31.312Z,88.65
2024-03-07T09:13:31.224Z,88.45
2024-03-07T09:14:31.217Z,88.55
2024-03-07T09:15:31.192Z,87.62
2024-03-07T09:16:31.196Z,88.03
2024-03-07T09:17:31.286Z,88.34
2024-03-07T09:18:31.291Z,87.93
2024-03-07T09:19:31.153Z,88.13
2024-03-07T09:20:31.149Z,88.24
2024-03-07T09:21:31.165Z,87.99
2024-03-07T09:22:31.123Z,88.20
2024-03-07T09:23:31.204Z,87.68
2024-03-07T09:24:31.153Z,87.85
2024-03-07T09:25:31.095Z,87.85
2024-03-07T09:26:31.140Z,87.12
2024-03-07T09:27:31.097Z,87.12
2024-03-07T09:28:31.076Z,86.71
2024-03-07T09:29:31.093Z,86.19
2024-03-07T09:30:31.088Z,87.02
2024-03-07T09:31:31.023Z,86.23
2024-03-07T09:32:31.105Z,86.17
2024-03-07T09:33:31.034Z,86.37
2024-03-07T09:34:30.994Z,86.99
2024-03-07T09:35:31.038Z,87.51
2024-03-07T09:36:30.986Z,87.51
2024-03-07T09:37:30.946Z,87.51
2024-03-07T09:38:30.952Z,87.62
2024-03-07T09:39:31.014Z,87.10
2024-03-07T09:40:32.736Z,87.20
2024-03-07T09:41:30.968Z,86.79
2024-03-07T09:42:31.034Z,86.07
2024-03-07T09:43:30.930Z,86.37
2024-03-07T09:44:30.923Z,86.17
2024-03-07T09:45:31.115Z,86.10
2024-03-07T09:46:30.901Z,85.58
2024-03-07T09:47:30.898Z,86.41
2024-03-07T09:48:30.978Z,86.99
2024-03-07T09:49:30.855Z,87.30
2024-03-07T09:50:30.929Z,86.58
2024-03-07T09:51:30.830Z,86.89
2024-03-07T09:52:30.796Z,86.89
2024-03-07T09:53:30.830Z,86.75
2024-03-07T09:54:30.810Z,86.44
2024-03-07T09:55:30.937Z,86.65
2024-03-07T09:56:30.787Z,86.65
2024-03-07T09:57:30.747Z,86.44
2024-03-07T09:58:30.745Z,86.23
2024-03-07T09:59:30.761Z,86.33
2024-03-07T10:00:30.777Z,86.13
2024-03-07T10:01:30.719Z,86.23
2024-03-07T10:02:30.728Z,86.65
2024-03-07T10:03:30.700Z,86.75
2024-03-07T10:04:30.662Z,85.78
2024-03-07T10:05:31.085Z,85.30
2024-03-07T10:06:30.651Z,85.61
2024-03-07T10:07:30.692Z,85.78
2024-03-07T10:08:30.692Z,85.99
2024-03-07T10:09:30.622Z,86.25
2024-03-07T10:10:30.604Z,84.70
2024-03-07T10:11:30.733Z,85.53
2024-03-07T10:12:30.648Z,84.91
2024-03-07T10:13:30.575Z,84.97
2024-03-07T10:14:30.713Z,85.39
2024-03-07T10:15:30.540Z,84.56
2024-03-07T10:16:30.531Z,84.25
2024-03-07T10:17:30.630Z,84.19
2024-03-07T10:18:30.959Z,85.11
2024-03-07T10:19:30.515Z,85.42
2024-03-07T10:20:30.565Z,85.74
2024-03-07T10:21:30.500Z,86.25
2024-03-07T10:22:30.530Z,85.84
2024-03-07T10:23:30.655Z,85.32
2024-03-07T10:24:30.459Z,85.32
2024-03-07T10:25:31.215Z,85.53
2024-03-07T10:26:30.499Z,85.94
2024-03-07T10:27:30.480Z,85.94
2024-03-07T10:28:30.445Z,85.74
2024-03-07T10:29:30.435Z,86.21
2024-03-07T10:30:30.422Z,86.21
2024-03-07T10:31:30.458Z,86.52
2024-03-07T10:32:30.451Z,86.73
2024-03-07T10:33:30.507Z,86.52
2024-03-07T10:34:30.364Z,86.83
2024-03-07T10:35:31.557Z,86.52
2024-03-07T10:36:30.338Z,86.11
2024-03-07T10:37:30.304Z,86.52
2024-03-07T10:38:30.411Z,86.94
2024-03-07T10:39:30.275Z,86.83
2024-03-07T10:40:30.271Z,86.63
2024-03-07T10:41:30.378Z,86.42
2024-03-07T10:42:30.247Z,86.52
2024-03-07T10:43:30.249Z,86.32
2024-03-07T10:44:30.307Z,86.42
2024-03-07T10:45:30.404Z,86.83
2024-03-07T10:46:30.247Z,87.04
2024-03-07T10:47:30.272Z,87.21
2024-03-07T10:48:30.311Z,86.90
2024-03-07T10:49:30.264Z,87.17
2024-03-07T10:50:37.308Z,87.37
2024-03-07T10:51:30.139Z,87.17
2024-03-07T10:52:30.247Z,86.55
2024-03-07T10:53:30.710Z,86.51
2024-03-07T10:54:30.362Z,86.41
2024-03-07T10:55:30.329Z,85.93
2024-03-07T10:56:30.926Z,86.55
2024-03-07T10:57:30.076Z,86.96
2024-03-07T10:58:30.095Z,86.96
2024-03-07T10:59:30.293Z,87.07
2024-03-07T11:00:30.101Z,87.13
2024-03-07T11:01:30.083Z,86.92
2024-03-07T11:02:30.582Z,86.71
2024-03-07T11:03:30.040Z,87.02
2024-03-07T11:04:30.015Z,86.92
2024-03-07T11:05:30.036Z,85.99
2024-03-07T11:06:30.209Z,86.41
2024-03-07T11:07:30.068Z,86.41
2024-03-07T11:08:30.169Z,86.71
2024-03-07T11:09:29.959Z,86.61
2024-03-07T11:10:29.949Z,86.51
2024-03-07T11:11:30.026Z,86.10
2024-03-07T11:12:29.981Z,86.41
2024-03-07T11:13:29.921Z,86.47
2024-03-07T11:14:29.936Z,86.36
2024-03-07T11:15:29.879Z,86.57
2024-03-07T11:16:29.911Z,86.78
2024-03-07T11:17:29.936Z,86.16
2024-03-07T11:18:30.299Z,86.16
2024-03-07T11:19:30.262Z,85.85
2024-03-07T11:20:29.892Z,85.75
2024-03-07T11:21:29.897Z,85.64
2024-03-07T11:22:29.807Z,85.44
2024-03-07T11:23:30.653Z,85.75
2024-03-07T11:24:29.952Z,86.05
2024-03-07T11:25:29.819Z,85.85
2024-03-07T11:26:29.813Z,86.16
2024-03-07T11:27:29.768Z,86.32
2024-03-07T11:28:29.774Z,86.16
2024-03-07T11:29:29.793Z,86.63
2024-03-07T11:30:30.157Z,86.12
2024-03-07T11:31:29.714Z,86.43
2024-03-07T11:32:30.946Z,86.63
2024-03-07T11:33:29.752Z,86.78
2024-03-07T11:34:29.712Z,86.94
2024-03-07T11:35:29.691Z,86.26
2024-03-07T11:36:29.664Z,86.57
2024-03-07T11:37:29.880Z,86.68
2024-03-07T11:38:29.780Z,86.88
2024-03-07T11:39:29.626Z,87.08
2024-03-07T11:40:29.617Z,87.60
2024-03-07T11:41:29.886Z,87.19
2024-03-07T11:42:29.972Z,86.98
2024-03-07T11:43:29.583Z,87.19
2024-03-07T11:44:29.569Z,87.19
2024-03-07T11:45:29.570Z,87.19
2024-03-07T11:46:30.028Z,87.08
2024-03-07T11:47:29.886Z,87.29
2024-03-07T11:48:29.717Z,87.81
2024-03-07T11:49:29.512Z,87.92
2024-03-07T11:50:29.616Z,87.60
2024-03-07T11:51:29.493Z,87.50
2024-03-07T11:52:29.729Z,87.19
2024-03-07T11:53:29.910Z,87.40
2024-03-07T11:54:29.466Z,87.71
2024-03-07T11:55:29.701Z,87.92
2024-03-07T11:56:29.480Z,87.40
2024-03-07T11:57:29.533Z,87.60
2024-03-07T11:58:29.864Z,87.40
2024-03-07T11:59:29.440Z,87.08
2024-03-07T12:00:29.409Z,87.60
2024-03-07T12:01:29.395Z,87.71
2024-03-07T12:02:29.604Z,87.50
2024-03-07T12:03:29.735Z,87.60
2024-03-07T12:04:29.983Z,87.81
2024-03-07T12:05:29.552Z,87.71
2024-03-07T12:06:29.326Z,87.81
2024-03-07T12:07:29.354Z,87.92
2024-03-07T12:08:29.360Z,88.22
2024-03-07T12:09:30.134Z,88.02
2024-03-07T12:10:29.415Z,88.29
2024-03-07T12:11:29.488Z,87.87
2024-03-07T12:12:29.355Z,87.50
2024-03-07T12:13:29.665Z,88.08
2024-03-07T12:14:29.296Z,87.81
2024-03-07T12:15:29.355Z,87.77
2024-03-07T12:16:30.824Z,87.66
2024-03-07T12:17:29.331Z,87.35
2024-03-07T12:18:29.391Z,87.15
2024-03-07T12:19:29.198Z,87.26
2024-03-07T12:20:29.610Z,87.46
2024-03-07T12:21:29.379Z,87.46
2024-03-07T12:22:31.136Z,87.63
2024-03-07T12:23:29.426Z,87.52
2024-03-07T12:24:29.298Z,86.18
2024-03-07T12:25:29.413Z,86.39
2024-03-07T12:26:29.130Z,86.43
2024-03-07T12:27:29.107Z,86.63
2024-03-07T12:28:30.974Z,87.11
2024-03-07T12:29:29.227Z,87.52
2024-03-07T12:30:29.089Z,87.63
2024-03-07T12:31:29.076Z,87.59
2024-03-07T12:32:29.080Z,86.35
2024-03-07T12:33:29.146Z,85.63
2024-03-07T12:34:31.212Z,85.31
2024-03-07T12:35:29.043Z,85.73
2024-03-07T12:36:29.080Z,85.83
2024-03-07T12:37:29.629Z,86.10
2024-03-07T12:38:29.259Z,86.00
2024-03-07T12:39:29.239Z,86.21
2024-03-07T12:40:29.003Z,86.31
2024-03-07T12:41:28.981Z,85.89
2024-03-07T12:42:28.938Z,86.00
2024-03-07T12:43:28.923Z,85.96
2024-03-07T12:44:30.193Z,86.16
2024-03-07T12:45:29.034Z,85.10
2024-03-07T12:46:28.907Z,84.07
2024-03-07T12:47:28.995Z,83.59
2024-03-07T12:48:29.510Z,83.59
2024-03-07T12:49:28.941Z,84.31
2024-03-07T12:50:28.937Z,84.05
2024-03-07T12:51:28.888Z,84.56
2024-03-07T12:52:28.828Z,84.62